Time;durP1;ratioP1;P1;durP2;ratioP2;P2;SDS_P1;SDS_P2;PMS_P1;PMS_P2;Temp;Humidity;BMP_temperature;BMP_pressure;BME280_temperature;BME280_humidity;BME280_pressure;Samples;Min_cycle;Max_cycle;Signal;HPM_P1;HPM_P2
2020/12/07 00:01:46;;;;;;;46.67;26.10;;;;;;;9.15;39.67;100015.72;4974147;28;20073;-80
2020/12/07 00:04:12;;;;;;;39.43;23.23;;;;;;;9.30;39.48;100003.53;4986756;28;20035;-79
2020/12/07 00:06:38;;;;;;;39.63;25.13;;;;;;;9.26;39.54;100005.28;4993452;28;20384;-79
2020/12/07 00:09:05;;;;;;;38.93;23.03;;;;;;;9.38;39.27;100002.72;4993258;28;20042;-80
2020/12/07 00:11:30;;;;;;;40.40;24.73;;;;;;;9.44;38.84;99992.44;4993469;28;20033;-79
2020/12/07 00:13:56;;;;;;;42.67;25.53;;;;;;;9.47;39.18;99994.53;4993335;28;20026;-80
2020/12/07 00:16:22;;;;;;;39.20;23.57;;;;;;;9.41;39.11;100004.00;4993577;28;20038;-80
2020/12/07 00:18:47;;;;;;;35.00;22.00;;;;;;;9.49;38.95;99991.47;4993815;28;20049;-79
2020/12/07 00:21:13;;;;;;;37.67;23.47;;;;;;;9.60;38.83;99985.38;4993298;28;20473;-79
2020/12/07 00:23:39;;;;;;;31.27;20.43;;;;;;;9.56;39.00;99992.56;4993352;28;20498;-80
2020/12/07 00:26:10;;;;;;;35.53;21.17;;;;;;;9.56;38.74;99989.06;4991975;28;20435;-79
2020/12/07 00:28:36;;;;;;;30.20;21.60;;;;;;;9.60;38.85;99990.03;4993158;28;20023;-80
2020/12/07 00:31:06;;;;;;;38.67;24.70;;;;;;;9.52;39.04;99977.19;4993224;28;20023;-80
2020/12/07 00:33:32;;;;;;;34.42;22.40;;;;;;;9.47;39.38;99977.38;4993168;28;20109;-80
2020/12/07 00:35:58;;;;;;;37.37;22.60;;;;;;;9.55;39.02;99973.81;4993427;28;20037;-79
2020/12/07 00:38:25;;;;;;;40.30;24.37;;;;;;;9.57;39.06;99979.75;4992995;28;20492;-78
2020/12/07 00:40:51;;;;;;;39.10;22.87;;;;;;;9.52;38.96;99974.44;4993093;28;20193;-78
2020/12/07 00:43:17;;;;;;;37.37;22.60;;;;;;;9.59;38.91;99972.81;4992792;28;20042;-78
2020/12/07 00:45:43;;;;;;;35.83;22.57;;;;;;;9.68;38.87;99964.66;4991820;28;20501;-79
2020/12/07 00:48:09;;;;;;;36.27;23.23;;;;;;;9.73;38.99;99961.72;4993136;28;20029;-78
2020/12/07 00:50:34;;;;;;;37.30;22.70;;;;;;;9.74;38.78;99953.22;4993078;28;20022;-79
2020/12/07 00:53:00;;;;;;;32.57;22.00;;;;;;;9.85;38.73;99961.84;4993028;28;20054;-78
2020/12/07 00:55:26;;;;;;;38.03;23.37;;;;;;;9.85;38.70;99961.84;4993061;28;20122;-78
2020/12/07 00:57:51;;;;;;;35.40;21.93;;;;;;;9.82;38.94;99959.75;4993001;28;20066;-79
2020/12/07 01:00:17;;;;;;;39.20;22.70;;;;;;;9.87;38.63;99959.59;4993028;28;20038;-78
2020/12/07 01:02:43;;;;;;;39.57;21.53;;;;;;;9.91;38.74;99968.72;4993039;28;20150;-78
2020/12/07 01:05:08;;;;;;;33.50;22.93;;;;;;;10.22;38.28;99964.91;4992518;28;20485;-80
2020/12/07 01:07:34;;;;;;;40.60;24.87;;;;;;;9.79;38.95;99974.06;4991693;28;20037;-80
2020/12/07 01:09:59;;;;;;;39.13;23.47;;;;;;;9.76;38.91;99968.47;4992846;28;20038;-80
2020/12/07 01:12:25;;;;;;;46.73;22.93;;;;;;;9.62;39.13;99971.41;4992812;28;20030;-80
2020/12/07 01:14:51;;;;;;;44.13;25.07;;;;;;;9.61;39.24;99956.16;4992806;28;20034;-79
2020/12/07 01:17:18;;;;;;;39.33;23.70;;;;;;;9.62;39.05;99955.03;4992817;28;20030;-79
2020/12/07 01:19:44;;;;;;;44.50;23.67;;;;;;;9.63;39.04;99957.44;4992763;28;20105;-79
2020/12/07 01:22:10;;;;;;;41.90;23.57;;;;;;;9.64;39.17;99960.94;4992904;28;20031;-80
2020/12/07 01:24:35;;;;;;;41.33;24.77;;;;;;;9.56;39.24;99964.50;4992678;28;20026;-80
2020/12/07 01:27:01;;;;;;;47.50;26.43;;;;;;;9.31;39.73;99963.44;4992852;28;20092;-79
2020/12/07 01:29:27;;;;;;;36.03;22.03;;;;;;;9.30;40.04;99962.66;4992689;28;20129;-79
2020/12/07 01:31:52;;;;;;;41.80;23.13;;;;;;;9.30;40.01;99951.75;4992734;28;20022;-79
2020/12/07 01:34:18;;;;;;;36.23;22.00;;;;;;;9.16;40.10;99951.13;4992737;28;20053;-79
2020/12/07 01:36:43;;;;;;;48.60;25.07;;;;;;;9.11;40.08;99951.25;4992686;28;20039;-79
2020/12/07 01:39:09;;;;;;;47.53;22.90;;;;;;;9.12;40.16;99945.50;4994173;28;20057;-80
2020/12/07 01:41:35;;;;;;;47.20;22.93;;;;;;;9.15;40.17;99947.59;4996171;28;20025;-80
2020/12/07 01:44:00;;;;;;;38.97;22.07;;;;;;;9.21;40.07;99947.41;4996090;28;20097;-80
2020/12/07 01:46:26;;;;;;;48.37;22.57;;;;;;;9.17;39.98;99944.53;4996040;28;20029;-79
2020/12/07 01:48:53;;;;;;;35.63;21.47;;;;;;;9.15;40.29;99938.59;4994732;28;20358;-80
2020/12/07 01:51:21;;;;;;;41.90;22.37;;;;;;;9.14;40.11;99948.72;4996005;28;20478;-80
2020/12/07 01:53:47;;;;;;;36.50;20.53;;;;;;;9.14;40.09;99951.44;4996078;28;20101;-79
2020/12/07 01:56:19;;;;;;;42.37;21.13;;;;;;;9.49;39.17;99947.84;4995949;28;20018;-79
2020/12/07 01:58:45;;;;;;;41.57;19.67;;;;;;;9.62;39.23;99947.66;4995967;28;20077;-79
2020/12/07 02:01:10;;;;;;;35.87;20.63;;;;;;;9.66;39.12;99939.59;4995831;28;20026;-80
2020/12/07 02:03:36;;;;;;;41.90;20.37;;;;;;;9.49;39.31;99936.94;4995803;28;20030;-79
2020/12/07 02:06:02;;;;;;;35.53;20.40;;;;;;;9.53;39.13;99932.44;4995813;28;20032;-79
2020/12/07 02:08:28;;;;;;;43.30;21.43;;;;;;;9.48;39.35;99932.59;4995706;28;20026;-80
2020/12/07 02:10:54;;;;;;;40.50;22.10;;;;;;;9.55;38.99;99936.44;4995496;28;20041;-79
2020/12/07 02:13:19;;;;;;;37.60;19.93;;;;;;;9.55;38.94;99936.44;4995526;28;20105;-80
2020/12/07 02:15:45;;;;;;;42.90;19.60;;;;;;;9.53;38.76;99937.91;4995570;28;20058;-79
2020/12/07 02:18:11;;;;;;;37.97;18.87;;;;;;;9.45;39.04;99934.06;4995078;28;20034;-79
2020/12/07 02:20:37;;;;;;;33.13;19.27;;;;;;;9.41;39.29;99931.16;4995578;28;20096;-79
2020/12/07 02:23:03;;;;;;;33.67;18.10;;;;;;;9.45;39.27;99928.63;4995373;28;20370;-79
2020/12/07 02:25:28;;;;;;;36.07;19.20;;;;;;;9.42;39.05;99930.03;4995397;28;20105;-80
2020/12/07 02:27:54;;;;;;;30.63;18.47;;;;;;;9.49;39.18;99926.81;4995376;28;20029;-80
2020/12/07 02:30:22;;;;;;;37.17;19.33;;;;;;;9.23;39.53;99929.63;4995187;28;20026;-79
2020/12/07 02:32:50;;;;;;;34.77;19.50;;;;;;;9.50;39.17;99927.63;4994034;28;20030;-79
2020/12/07 02:35:16;;;;;;;30.13;18.50;;;;;;;9.64;39.10;99928.22;4995272;28;20025;-80
2020/12/07 02:37:44;;;;;;;32.40;18.13;;;;;;;9.49;39.38;99926.81;4994752;28;20053;-80
2020/12/07 02:40:10;;;;;;;31.63;18.13;;;;;;;9.66;39.16;99923.22;4995198;28;20116;-80
2020/12/07 02:42:37;;;;;;;28.70;17.97;;;;;;;9.73;38.89;99926.25;4994998;28;20033;-80
2020/12/07 02:45:09;;;;;;;29.63;17.03;;;;;;;9.79;38.75;99930.41;4995019;28;20030;-80
2020/12/07 02:47:36;;;;;;;30.83;18.17;;;;;;;9.82;38.88;99927.00;4994980;28;20028;-79
2020/12/07 02:50:02;;;;;;;34.27;19.40;;;;;;;9.84;39.02;99924.78;4994463;28;20173;-79
2020/12/07 02:52:28;;;;;;;32.97;18.93;;;;;;;9.89;38.81;99923.78;4994904;28;20054;-80
2020/12/07 02:55:03;;;;;;;31.90;17.77;;;;;;;9.85;38.72;99920.13;4994873;28;20509;-80
2020/12/07 02:57:28;;;;;;;34.70;17.90;;;;;;;10.02;38.85;99925.50;4994933;28;20022;-79
2020/12/07 02:59:54;;;;;;;30.83;18.70;;;;;;;10.12;38.76;99922.38;4995405;28;20380;-80
2020/12/07 03:02:20;;;;;;;37.03;19.37;;;;;;;9.98;39.09;99922.63;4994734;28;20561;-80
2020/12/07 03:04:46;;;;;;;29.17;17.97;;;;;;;10.01;38.96;99916.50;4994933;28;20034;-79
2020/12/07 03:07:12;;;;;;;30.97;18.47;;;;;;;9.97;39.32;99917.47;4995087;28;20110;-79
2020/12/07 03:09:38;;;;;;;34.80;18.33;;;;;;;10.04;39.05;99917.78;4994597;28;20030;-79
2020/12/07 03:12:05;;;;;;;32.20;18.13;;;;;;;10.09;39.00;99919.53;4993662;28;20444;-79
2020/12/07 03:14:31;;;;;;;34.33;18.93;;;;;;;10.19;38.81;99932.78;4994687;28;20022;-79
2020/12/07 03:16:57;;;;;;;30.83;18.37;;;;;;;10.17;39.14;99926.88;4994841;28;20057;-80
2020/12/07 03:19:23;;;;;;;31.83;18.97;;;;;;;9.87;39.74;99924.13;4994191;28;20492;-80
2020/12/07 03:21:49;;;;;;;32.53;17.73;;;;;;;10.02;39.38;99920.03;4994443;28;20027;-80
2020/12/07 03:24:15;;;;;;;31.90;19.23;;;;;;;10.16;39.18;99915.16;4994967;28;20027;-80
2020/12/07 03:26:41;;;;;;;36.20;19.17;;;;;;;10.25;39.74;99909.66;4993254;28;20125;-80
2020/12/07 03:29:07;;;;;;;34.30;18.87;;;;;;;10.59;39.01;99916.03;4994548;28;20121;-79
2020/12/07 03:31:34;;;;;;;26.10;16.83;;;;;;;10.72;38.91;99907.53;4994157;28;20109;-79
2020/12/07 03:34:00;;;;;;;30.87;18.93;;;;;;;10.62;39.27;99913.44;4994219;28;20034;-79
2020/12/07 03:36:27;;;;;;;29.23;17.73;;;;;;;10.59;39.34;99907.84;4993898;28;20028;-80
2020/12/07 03:38:53;;;;;;;39.43;20.73;;;;;;;10.60;39.76;99903.97;4992292;28;20046;-80
2020/12/07 03:41:18;;;;;;;35.47;18.50;;;;;;;10.68;39.43;99900.38;4993307;28;20030;-79
2020/12/07 03:43:44;;;;;;;26.63;17.27;;;;;;;10.74;39.47;99899.03;4993015;28;20084;-80
2020/12/07 03:46:10;;;;;;;32.33;17.77;;;;;;;10.78;39.42;99900.75;4993596;28;20026;-80
2020/12/07 03:48:36;;;;;;;29.60;17.50;;;;;;;10.84;39.49;99898.63;4993848;28;20033;-79
2020/12/07 03:51:02;;;;;;;34.00;18.77;;;;;;;10.88;39.56;99899.53;4994169;28;20030;-79
2020/12/07 03:53:33;;;;;;;33.13;17.63;;;;;;;10.90;39.60;99900.03;4993954;28;20031;-80
2020/12/07 03:55:59;;;;;;;31.77;18.80;;;;;;;10.91;39.63;99898.88;4994095;28;20432;-80
2020/12/07 03:58:24;;;;;;;28.53;16.50;;;;;;;10.92;39.82;99897.75;4994156;28;20038;-79
2020/12/07 04:00:50;;;;;;;30.17;17.47;;;;;;;10.96;39.75;99903.34;4993548;28;20034;-79
2020/12/07 04:03:16;;;;;;;32.33;19.60;;;;;;;10.98;39.80;99901.88;4993749;28;20034;-80
2020/12/07 04:05:45;;;;;;;29.70;16.53;;;;;;;10.98;39.66;99896.41;4993785;28;20156;-79
2020/12/07 04:08:11;;;;;;;30.00;17.20;;;;;;;10.90;39.75;99897.28;4993509;28;20050;-80
2020/12/07 04:10:40;;;;;;;32.80;18.00;;;;;;;10.87;39.97;99892.47;4993551;28;20038;-80
2020/12/07 04:13:06;;;;;;;29.87;17.43;;;;;;;10.88;39.78;99899.53;4993926;28;20563;-80
2020/12/07 04:15:33;;;;;;;29.40;18.00;;;;;;;10.97;39.56;99897.56;4993666;28;20022;-80
2020/12/07 04:17:59;;;;;;;28.50;17.77;;;;;;;11.00;39.48;99896.88;4993614;28;20026;-80
2020/12/07 04:20:24;;;;;;;28.47;15.90;;;;;;;11.01;39.47;99903.94;4992119;28;20029;-79
2020/12/07 04:22:51;;;;;;;26.27;15.83;;;;;;;11.07;39.57;99894.38;4993592;28;20543;-79
2020/12/07 04:25:17;;;;;;;34.50;18.30;;;;;;;10.84;40.06;99902.16;4993429;28;20373;-79
2020/12/07 04:27:42;;;;;;;27.13;16.67;;;;;;;10.80;40.28;99893.00;4992213;28;20113;-80
2020/12/07 04:30:08;;;;;;;25.63;15.63;;;;;;;10.91;40.23;99896.16;4993191;28;20110;-80
2020/12/07 04:32:34;;;;;;;28.43;17.23;;;;;;;11.10;39.67;99890.16;4975964;28;20034;-80
2020/12/07 04:34:59;;;;;;;29.53;17.57;;;;;;;11.15;39.81;99897.38;4993656;28;20022;-79
2020/12/07 04:37:25;;;;;;;26.10;15.37;;;;;;;11.23;39.69;99894.53;4993362;28;20126;-80
2020/12/07 04:39:51;;;;;;;29.77;16.90;;;;;;;11.28;39.66;99899.00;4992533;28;20100;-79
2020/12/07 04:42:18;;;;;;;22.80;14.97;;;;;;;11.27;39.71;99897.41;4993291;28;20046;-80
2020/12/07 04:44:43;;;;;;;26.83;16.70;;;;;;;11.15;39.88;99886.44;4993690;28;20366;-79
2020/12/07 04:47:12;;;;;;;25.60;17.17;;;;;;;11.05;40.40;99888.47;4993327;28;20029;-80
2020/12/07 04:49:39;;;;;;;21.58;14.40;;;;;;;11.05;40.29;99899.41;4991947;28;20030;-79
2020/12/07 04:52:04;;;;;;;28.73;16.77;;;;;;;11.11;40.29;99900.00;4993189;28;20076;-79
2020/12/07 04:54:31;;;;;;;27.07;15.30;;;;;;;11.14;40.42;99896.56;4993279;28;20056;-79
2020/12/07 04:56:57;;;;;;;24.47;14.73;;;;;;;11.19;40.35;99901.03;4993369;28;20022;-80
2020/12/07 04:59:24;;;;;;;25.40;15.80;;;;;;;11.22;40.48;99894.88;4993357;28;20405;-79
2020/12/07 05:01:51;;;;;;;28.03;16.13;;;;;;;11.51;40.09;99894.72;4993107;28;20605;-79
2020/12/07 05:04:16;;;;;;;22.47;14.37;;;;;;;11.59;39.92;99901.25;4993007;28;20031;-79
2020/12/07 05:06:42;;;;;;;26.60;17.20;;;;;;;11.68;39.91;99897.25;4993144;28;20503;-79
2020/12/07 05:09:11;;;;;;;26.00;15.03;;;;;;;11.71;39.79;99897.72;4993000;28;20428;-80
2020/12/07 05:11:37;;;;;;;24.43;15.33;;;;;;;11.77;39.96;99890.88;4992902;28;20536;-80
2020/12/07 05:14:07;;;;;;;22.00;15.60;;;;;;;11.82;39.78;99894.22;4996332;28;20106;-79
2020/12/07 05:16:33;;;;;;;27.63;15.50;;;;;;;11.71;40.15;99893.03;4996732;28;20046;-80
2020/12/07 05:19:00;;;;;;;29.23;15.67;;;;;;;11.77;40.44;99897.16;4996672;28;20065;-80
2020/12/07 05:21:26;;;;;;;20.83;15.03;;;;;;;11.85;40.31;99898.22;4979148;28;20551;-80
2020/12/07 05:23:52;;;;;;;32.30;15.10;;;;;;;11.85;40.39;99896.25;4996569;28;20030;-80
2020/12/07 05:26:20;;;;;;;29.40;15.93;;;;;;;11.92;40.08;99890.22;4995221;28;20026;-81
2020/12/07 05:28:52;;;;;;;32.83;15.73;;;;;;;11.87;41.09;99891.28;4996423;28;20432;-80
2020/12/07 05:31:21;;;;;;;28.63;16.50;;;;;;;11.88;40.76;99886.59;4996376;28;20025;-79
2020/12/07 05:33:48;;;;;;;30.38;16.63;;;;;;;11.96;40.64;99880.19;4996378;28;20023;-79
2020/12/07 05:36:14;;;;;;;32.10;16.13;;;;;;;12.02;40.65;99892.53;4996296;28;20489;-80
2020/12/07 05:38:42;;;;;;;36.27;16.13;;;;;;;11.96;40.94;99891.16;4996127;28;20121;-80
2020/12/07 05:41:08;;;;;;;30.17;16.63;;;;;;;12.03;41.04;99896.84;4996236;28;20483;-80
2020/12/07 05:43:36;;;;;;;28.90;15.50;;;;;;;12.07;40.90;99899.69;4996269;28;20080;-80
2020/12/07 05:46:04;;;;;;;29.37;16.23;;;;;;;12.13;40.83;99893.66;4996115;28;20105;-80
2020/12/07 05:48:32;;;;;;;29.50;17.83;;;;;;;12.24;40.47;99902.19;4996167;28;20027;-81
2020/12/07 05:51:01;;;;;;;28.23;16.47;;;;;;;12.43;40.18;99907.06;4995993;28;20045;-79
2020/12/07 05:53:27;;;;;;;31.83;16.10;;;;;;;12.39;40.24;99906.16;4996045;28;20029;-79
2020/12/07 05:55:54;;;;;;;27.10;15.80;;;;;;;12.43;40.08;99910.63;4995931;28;20030;-79
2020/12/07 05:58:28;;;;;;;32.37;16.47;;;;;;;12.44;40.16;99914.94;4995970;28;20473;-80
2020/12/07 06:00:57;;;;;;;26.07;15.30;;;;;;;12.53;39.99;99909.31;4996008;28;20034;-79
2020/12/07 06:03:24;;;;;;;35.95;16.55;;;;;;;12.28;40.63;99910.53;4994561;28;20413;-80
2020/12/07 06:05:50;;;;;;;30.47;16.33;;;;;;;12.45;40.37;99913.78;4995780;28;20037;-80
2020/12/07 06:08:21;;;;;;;32.80;16.73;;;;;;;12.44;40.46;99905.94;4995741;28;20488;-80
2020/12/07 06:11:00;;;;;;;28.53;17.00;;;;;;;12.48;40.26;99904.09;4995735;28;20089;-80
2020/12/07 06:13:28;;;;;;;23.33;14.40;;;;;;;12.09;41.35;99900.97;4995764;28;20026;-80
2020/12/07 06:15:55;;;;;;;29.67;15.83;;;;;;;12.05;41.54;99908.25;4995691;28;20389;-80
2020/12/07 06:18:25;;;;;;;25.43;14.77;;;;;;;12.07;41.97;99905.97;4995566;28;20026;-80
2020/12/07 06:21:04;;;;;;;31.40;16.00;;;;;;;12.12;42.28;99905.75;4995641;28;20046;-80
2020/12/07 06:23:37;;;;;;;28.67;15.20;;;;;;;12.45;41.08;99899.31;4995514;28;20108;-81
2020/12/07 06:26:05;;;;;;;31.73;16.10;;;;;;;12.30;41.53;99902.75;4995087;28;20201;-80
2020/12/07 06:28:36;;;;;;;25.43;15.87;;;;;;;12.00;42.17;99900.25;4995424;28;20030;-80
2020/12/07 06:31:13;;;;;;;26.30;16.30;;;;;;;12.29;41.50;99899.22;4995283;28;20022;-80
2020/12/07 06:33:41;;;;;;;38.80;16.90;;;;;;;12.44;41.28;99892.22;4995279;28;20037;-79
2020/12/07 06:36:31;;;;;;;29.07;15.23;;;;;;;12.37;41.76;99892.00;4993458;28;20069;-79
2020/12/07 06:38:58;;;;;;;37.70;15.37;;;;;;;12.56;41.12;99884.00;4993470;28;20065;-80
2020/12/07 06:41:44;;;;;;;30.07;15.73;;;;;;;12.52;41.40;99891.28;4994902;28;20026;-80
2020/12/07 06:44:22;;;;;;;22.93;15.43;;;;;;;12.62;41.19;99874.38;4995114;28;20109;-80
2020/12/07 06:47:01;;;;;;;33.17;16.93;;;;;;;12.62;41.39;99868.91;4995566;28;20473;-82
2020/12/07 06:49:32;;;;;;;86.57;39.43;;;;;;;12.62;41.45;99876.31;4995055;28;20070;-80
2020/12/07 06:52:07;;;;;;;43.10;27.97;;;;;;;12.73;41.03;99875.47;4977914;28;20030;-83
2020/12/07 06:57:27;;;;;;;49.90;28.07;;;;;;;12.43;41.89;99879.69;4994387;28;20068;-80
2020/12/07 06:59:54;;;;;;;74.17;45.90;;;;;;;12.41;41.99;99881.97;4994627;28;20496;-82
2020/12/07 07:02:20;;;;;;;95.30;86.00;;;;;;;12.17;42.77;99882.81;4976479;28;20096;-81
2020/12/07 07:04:57;;;;;;;72.00;64.20;;;;;;;12.32;42.50;99886.75;4994231;28;20034;-82
2020/12/07 07:07:25;;;;;;;90.33;80.10;;;;;;;12.67;41.18;99879.59;4992746;28;20061;-81
2020/12/07 07:09:51;;;;;;;32.37;23.47;;;;;;;12.72;41.34;99889.53;4993813;28;20038;-81
2020/12/07 07:12:18;;;;;;;32.63;18.83;;;;;;;12.77;41.22;99890.09;4993047;28;20412;-82
2020/12/07 07:14:46;;;;;;;29.10;17.77;;;;;;;12.68;41.24;99896.84;4992905;28;20032;-80
2020/12/07 07:17:12;;;;;;;45.87;28.47;;;;;;;12.60;41.56;99906.81;4994286;28;20113;-81
2020/12/07 07:19:37;;;;;;;45.43;22.97;;;;;;;12.69;41.37;99901.19;4993992;28;20105;-81
2020/12/07 07:22:03;;;;;;;157.83;90.60;;;;;;;12.58;41.75;99903.63;4983329;28;20054;-78
2020/12/07 07:24:38;;;;;;;118.00;78.07;;;;;;;12.53;41.88;99898.38;4991566;28;20027;-79
2020/12/07 07:30:05;;;;;;;144.27;102.83;;;;;;;12.76;41.69;99893.16;4953214;29;20031;-78
2020/12/07 07:32:35;;;;;;;81.90;51.70;;;;;;;12.80;41.53;99898.75;4975079;28;20045;-78
2020/12/07 07:35:01;;;;;;;113.13;57.67;;;;;;;12.91;41.25;99905.34;4961023;28;20096;-80
2020/12/07 07:37:27;;;;;;;89.13;49.23;;;;;;;12.84;41.58;99910.63;4976431;28;20034;-77
2020/12/07 07:40:06;;;;;;;34.60;18.43;;;;;;;12.83;41.55;99906.28;4977338;28;20540;-78
2020/12/07 07:42:35;;;;;;;90.57;61.00;;;;;;;12.94;41.59;99901.91;4977209;28;20042;-77
2020/12/07 07:45:03;;;;;;;85.10;55.33;;;;;;;12.85;41.82;99884.81;4980380;28;20109;-77
2020/12/07 07:47:34;;;;;;;57.30;38.43;;;;;;;12.99;41.45;99902.44;4977230;28;20062;-81
2020/12/07 07:50:37;;;;;;;34.10;19.57;;;;;;;13.05;41.37;99901.06;4976831;28;20042;-79
2020/12/07 08:15:16;;;;;;;28.40;15.13;;;;;;;12.35;43.26;99932.66;4977253;28;20040;-83
2020/12/07 08:15:49;;;;;;;27.27;13.27;;;;;;;12.42;42.93;99927.41;4977254;28;20145;-82
2020/12/07 08:18:19;;;;;;;24.53;15.00;;;;;;;12.43;42.80;99926.25;4976388;28;20436;-82
2020/12/07 08:20:54;;;;;;;30.92;16.58;;;;;;;12.33;42.99;99922.06;4976204;28;20126;-83
2020/12/07 08:23:26;;;;;;;33.63;19.10;;;;;;;12.27;42.88;99925.38;4976508;28;20073;-82
2020/12/07 08:25:53;;;;;;;28.90;16.80;;;;;;;12.46;42.88;99928.28;4973133;28;20081;-80
2020/12/07 08:28:36;;;;;;;34.53;21.53;;;;;;;12.39;42.83;99928.91;4963422;28;20018;-81
2020/12/07 08:31:17;;;;;;;26.53;16.90;;;;;;;12.47;42.89;99936.19;4964490;28;20047;-80
2020/12/07 08:34:13;;;;;;;30.57;15.53;;;;;;;12.73;41.91;99927.56;4974850;28;20737;-80
2020/12/07 08:36:42;;;;;;;35.60;20.77;;;;;;;12.76;41.79;99931.53;4982520;28;20034;-80
2020/12/07 08:39:08;;;;;;;28.20;16.50;;;;;;;12.77;41.68;99936.69;4968146;28;20240;-80
2020/12/07 08:41:35;;;;;;;19.40;11.87;;;;;;;12.86;41.79;99933.81;4984597;28;20038;-80
2020/12/07 08:44:10;;;;;;;27.73;13.90;;;;;;;12.94;41.74;99934.81;4982239;28;20477;-80
2020/12/07 08:46:37;;;;;;;26.47;13.43;;;;;;;12.94;41.82;99943.84;4983057;28;20038;-80
2020/12/07 08:49:05;;;;;;;20.27;13.67;;;;;;;13.00;41.73;99938.91;4978683;28;20030;-79
2020/12/07 08:51:32;;;;;;;23.10;13.83;;;;;;;13.00;41.71;99942.44;4979200;28;20022;-80
2020/12/07 08:53:58;;;;;;;21.20;13.67;;;;;;;13.01;42.19;99946.78;4977247;28;20039;-80
2020/12/07 08:56:24;;;;;;;25.97;13.97;;;;;;;13.12;41.62;99940.78;4977214;28;20383;-79
2020/12/07 08:58:49;;;;;;;23.33;14.53;;;;;;;12.88;42.15;99936.19;4973100;28;20553;-80
2020/12/07 09:01:15;;;;;;;23.07;12.73;;;;;;;13.10;41.71;99913.72;4977675;28;20528;-81
2020/12/07 09:03:42;;;;;;;23.37;13.87;;;;;;;13.09;41.77;99941.50;4979532;28;20035;-81
2020/12/07 09:06:09;;;;;;;24.40;14.30;;;;;;;13.01;41.92;99940.50;4973627;28;20022;-81
2020/12/07 09:08:43;;;;;;;21.60;13.83;;;;;;;13.04;41.56;99945.28;4974944;28;20121;-80
2020/12/07 09:11:11;;;;;;;27.43;13.93;;;;;;;12.92;41.73;99942.56;4992293;28;20366;-80
2020/12/07 09:13:38;;;;;;;27.17;14.37;;;;;;;12.85;41.84;99950.63;4981280;28;20038;-80
2020/12/07 09:16:04;;;;;;;26.10;14.07;;;;;;;12.80;41.81;99953.59;4983666;28;20026;-80
2020/12/07 09:18:29;;;;;;;26.70;14.87;;;;;;;12.82;41.84;99952.09;4983977;28;20215;-80
2020/12/07 09:20:55;;;;;;;36.60;15.83;;;;;;;12.73;42.01;99954.97;4978785;28;20038;-80
2020/12/07 09:23:21;;;;;;;22.77;14.37;;;;;;;12.83;41.85;99956.41;4978193;28;20027;-80
2020/12/07 09:25:48;;;;;;;22.30;15.43;;;;;;;12.89;41.62;99957.00;4981615;28;20117;-81
2020/12/07 09:28:13;;;;;;;24.00;14.07;;;;;;;12.90;41.73;99961.31;4981569;28;20516;-79
2020/12/07 09:30:41;;;;;;;69.83;52.43;;;;;;;13.19;41.13;99958.25;4969763;28;20038;-80
2020/12/07 09:33:07;;;;;;;82.20;52.80;;;;;;;13.37;40.87;99960.72;4987849;28;20185;-81
2020/12/07 09:35:32;;;;;;;168.07;124.13;;;;;;;13.32;40.97;99959.84;4981404;28;20456;-79
2020/12/07 09:37:58;;;;;;;31.50;25.30;;;;;;;13.36;41.04;99959.13;4984411;28;20051;-78
2020/12/07 09:40:24;;;;;;;29.47;18.77;;;;;;;13.20;41.40;99957.13;4979658;28;20037;-78
2020/12/07 09:42:50;;;;;;;152.67;99.50;;;;;;;13.48;40.97;99961.81;4985221;28;20030;-77
2020/12/07 09:45:16;;;;;;;120.93;68.57;;;;;;;13.52;40.99;99958.00;4985407;28;20070;-78
2020/12/07 09:47:41;;;;;;;55.80;31.13;;;;;;;13.47;41.14;99957.47;4972212;28;20035;-80
2020/12/07 09:50:09;;;;;;;38.53;21.20;;;;;;;13.47;41.58;99958.28;4978985;28;20034;-78
2020/12/07 09:52:35;;;;;;;220.30;146.27;;;;;;;13.36;41.80;99968.16;4979775;28;20104;-78
2020/12/07 09:55:01;;;;;;;192.40;124.47;;;;;;;13.10;42.52;99963.09;4985727;28;20022;-77
2020/12/07 09:57:26;;;;;;;26.73;16.87;;;;;;;13.40;41.95;99966.31;4988455;28;20038;-78
2020/12/07 09:59:52;;;;;;;24.10;15.77;;;;;;;13.57;41.48;99968.72;4983195;28;20029;-78
2020/12/07 10:02:17;;;;;;;39.40;20.57;;;;;;;13.56;41.59;99963.59;4986485;28;20377;-80
2020/12/07 10:04:43;;;;;;;35.97;21.40;;;;;;;13.70;41.51;99969.47;4982554;28;20114;-80
2020/12/07 10:07:09;;;;;;;58.03;33.77;;;;;;;13.30;42.29;99969.56;4984268;28;20081;-78
2020/12/07 10:09:36;;;;;;;504.63;294.30;;;;;;;13.30;42.28;99973.09;4987300;28;20054;-80
2020/12/07 10:12:01;;;;;;;124.00;65.37;;;;;;;13.06;42.75;99967.66;4985557;28;20049;-78
2020/12/07 10:14:27;;;;;;;24.73;16.60;;;;;;;12.95;42.94;99974.78;4989406;28;20070;-81
2020/12/07 10:16:53;;;;;;;33.00;21.50;;;;;;;13.22;42.47;99976.78;4984763;28;20539;-82
2020/12/07 10:19:18;;;;;;;72.80;49.77;;;;;;;13.36;41.92;99970.09;4981968;28;20387;-80
2020/12/07 10:21:44;;;;;;;80.47;56.20;;;;;;;13.17;42.46;99966.03;4981070;28;20033;-81
2020/12/07 10:24:09;;;;;;;52.93;42.80;;;;;;;13.38;42.23;99968.63;4983720;28;20026;-81
2020/12/07 10:26:35;;;;;;;36.13;30.10;;;;;;;13.54;41.80;99968.66;4982905;28;20389;-79
2020/12/07 10:29:01;;;;;;;28.13;21.90;;;;;;;13.63;41.47;99958.28;4978539;28;20042;-79
2020/12/07 10:31:27;;;;;;;35.07;23.97;;;;;;;13.61;41.54;99966.09;4969316;28;20110;-80
2020/12/07 10:33:53;;;;;;;38.97;29.97;;;;;;;13.37;42.11;99974.44;4982885;28;20030;-80
2020/12/07 10:36:19;;;;;;;30.25;20.88;;;;;;;13.41;41.89;99969.84;4985169;28;20110;-82
2020/12/07 10:38:47;;;;;;;24.70;18.00;;;;;;;13.43;42.13;99973.84;4979121;28;20053;-81
2020/12/07 10:41:13;;;;;;;31.38;21.40;;;;;;;13.47;42.28;99977.47;4979929;28;20093;-82
2020/12/07 10:43:43;;;;;;;43.80;38.40;;;;;;;13.55;42.40;99979.28;4984996;28;20081;-80
2020/12/07 10:46:12;;;;;;;26.27;17.85;;;;;;;13.49;42.47;99979.88;4977946;28;20022;-80
2020/12/07 10:48:37;;;;;;;21.65;14.45;;;;;;;13.65;42.11;99972.47;4981828;28;20054;-79
2020/12/07 10:51:03;;;;;;;24.57;17.97;;;;;;;13.50;42.72;99971.28;4980201;28;20528;-81
2020/12/07 10:53:29;;;;;;;20.03;11.97;;;;;;;13.55;42.79;99972.97;4980777;28;20065;-82
2020/12/07 10:55:55;;;;;;;36.63;21.80;;;;;;;13.70;42.62;99968.66;4982991;28;20137;-81
2020/12/07 10:58:21;;;;;;;35.75;22.08;;;;;;;13.90;42.25;99964.84;4983764;28;20034;-80
2020/12/07 11:00:47;;;;;;;27.63;15.90;;;;;;;14.06;42.17;99970.38;4982928;28;20039;-81
2020/12/07 11:03:12;;;;;;;18.03;15.27;;;;;;;13.98;42.55;99968.59;4983854;28;20037;-81
2020/12/07 11:05:40;;;;;;;16.57;14.10;;;;;;;14.09;42.33;99970.47;4985309;28;20056;-80
2020/12/07 11:08:21;;;;;;;15.18;10.30;;;;;;;14.14;42.45;99972.94;4981204;28;20184;-81
2020/12/07 11:10:46;;;;;;;14.47;10.87;;;;;;;14.29;42.34;99978.78;4979846;28;20125;-80
2020/12/07 11:13:34;;;;;;;19.20;11.40;;;;;;;14.22;42.55;99975.88;4975569;28;20101;-79
2020/12/07 11:16:04;;;;;;;15.98;11.40;;;;;;;14.38;42.18;99968.41;4984069;28;20045;-81
2020/12/07 11:18:31;;;;;;;19.47;14.87;;;;;;;14.74;41.83;99969.25;4966435;28;20041;-80
2020/12/07 11:20:57;;;;;;;16.50;11.10;;;;;;;14.88;41.78;99961.28;4981751;28;20049;-78
2020/12/07 11:23:23;;;;;;;16.37;11.13;;;;;;;15.06;41.47;99956.16;4979201;28;20039;-79
2020/12/07 11:25:52;;;;;;;15.20;10.00;;;;;;;15.24;41.38;99963.59;4982539;28;20052;-78
2020/12/07 11:28:18;;;;;;;15.25;10.18;;;;;;;15.30;41.85;99955.88;4984278;28;20026;-79
2020/12/07 11:30:43;;;;;;;14.88;10.65;;;;;;;15.50;41.38;99957.44;4976545;28;20476;-79
2020/12/07 11:33:09;;;;;;;11.90;9.38;;;;;;;15.50;41.79;99960.19;4976509;28;20022;-79
2020/12/07 11:35:35;;;;;;;17.95;10.77;;;;;;;15.40;41.80;99955.25;4992868;28;20092;-80
2020/12/07 11:38:07;;;;;;;13.32;10.40;;;;;;;15.61;41.45;99954.06;4993957;28;20058;-79
2020/12/07 11:45:46;;;;;;;16.05;10.68;;;;;;;15.79;41.43;99955.22;4991078;28;20645;-83
2020/12/07 11:48:12;;;;;;;12.23;9.48;;;;;;;15.86;41.36;99955.34;4993416;28;20026;-81
2020/12/07 11:50:38;;;;;;;15.82;9.30;;;;;;;15.98;40.93;99944.13;4992743;28;20073;-80
2020/12/07 11:53:04;;;;;;;12.63;8.65;;;;;;;15.87;41.24;99943.19;4993916;28;20030;-79